Sanibel, FL (33957)

4:26 PM EST on December 08, 2016 (GMT -0500)
South Yachtsman | | Change Station

Elev 13 ft 26.45 °N, 82.03 °W | Updated 18 seconds ago

Overcast
Overcast
71.1 °F
Feels Like 71.1 °F
N
0.2
Wind Variable Wind from NW
Gusts 2.5 mph

Today
High -- | Low -- °F
--% Chance of Precip.
Yesterday
High -- | Low -- °F
Precip. -- in
Pressure 30.09 in
Visibility 10.0 miles
Clouds Overcast 7000 ft
Dew Point 66 °F
Humidity 85%
Rainfall 0.00 in
Snow Depth Not available.
7:04 AM 5:36 PM
Waxing Gibbous, 67% visible
METAR KFMY 082053Z AUTO 36006KT 10SM OVC070 23/16 A3008 RMK AO2 SLP188 T02280161 55005
Pressure 30.09 in
Visibility 10.0 miles
Clouds Overcast 7000 ft
Dew Point 66 °F
Humidity 85%
Rainfall 0.00 in
Snow Depth Not available.
7:04 AM 5:36 PM
Waxing Gibbous, 67% visible
METAR KFMY 082053Z AUTO 36006KT 10SM OVC070 23/16 A3008 RMK AO2 SLP188 T02280161 55005

10-Day Weather Forecast

Almanac

Astronomy

Dec. 08, 2016 Rise Set
Actual Time
Civil Twilight
Nautical Twilight
Astronomical Twilight
Moon
Length of Visible Light
Length of Day
Tomorrow will be .
, % of the Moon is Illuminated

Today's Extremes

State Highs State Lows

Community

WunderPhotos

Upload Photos

1,956,277 photos uploaded!

WunderBlog® & News

Nearby

Air Quality

  Air Quality AQ Index Pollutant
Not available.

Snow Depth

Station Depth Elevation

Earthquake Activity

City Distance Mag. Time & Date
Minimum magnitude displayed is 2.5.

Coastal Water Temperatures

Place Temperature

Stations

Nearby Weather Stations

Station Location Temp. Windchill Dew Point Humidity Wind Precip. Elev Updated Type
                   

Watches & Warnings

There are currently no watches in effect.